createdAt,value
2023-02-27T00:00:05.525Z,-1.29
2023-02-27T00:01:05.794Z,-1.30
2023-02-27T00:02:05.814Z,-1.31
2023-02-27T00:03:05.965Z,-1.32
2023-02-27T00:04:06.086Z,-1.32
2023-02-27T00:05:06.254Z,-1.34
2023-02-27T00:06:06.444Z,-1.34
2023-02-27T00:07:06.443Z,-1.35
2023-02-27T00:08:06.633Z,-1.35
2023-02-27T00:09:06.722Z,-1.35
2023-02-27T00:10:06.813Z,-1.35
2023-02-27T00:11:06.922Z,-1.34
2023-02-27T00:12:07.161Z,-1.33
2023-02-27T00:13:07.292Z,-1.33
2023-02-27T00:14:07.337Z,-1.33
2023-02-27T00:15:07.460Z,-1.33
2023-02-27T00:16:07.662Z,-1.34
2023-02-27T00:17:07.701Z,-1.35
2023-02-27T00:18:07.869Z,-1.36
2023-02-27T00:19:07.991Z,-1.36
2023-02-27T00:20:08.110Z,-1.37
2023-02-27T00:21:08.245Z,-1.38
2023-02-27T00:22:08.377Z,-1.39
2023-02-27T00:23:08.638Z,-1.39
2023-02-27T00:24:08.686Z,-1.40
2023-02-27T00:25:08.790Z,-1.40
2023-02-27T00:26:08.929Z,-1.41
2023-02-27T00:27:09.065Z,-1.41
2023-02-27T00:28:09.236Z,-1.42
2023-02-27T00:29:09.313Z,-1.43
2023-02-27T00:30:09.483Z,-1.44
2023-02-27T00:31:09.702Z,-1.46
2023-02-27T00:32:09.836Z,-1.47
2023-02-27T00:33:09.883Z,-1.49
2023-02-27T00:34:09.981Z,-1.51
2023-02-27T00:35:10.123Z,-1.52
2023-02-27T00:36:10.357Z,-1.52
2023-02-27T00:37:10.398Z,-1.53
2023-02-27T00:38:10.568Z,-1.54
2023-02-27T00:39:10.678Z,-1.55
2023-02-27T00:40:11.384Z,-1.55
2023-02-27T00:41:10.947Z,-1.55
2023-02-27T00:42:11.086Z,-1.55
2023-02-27T00:43:11.222Z,-1.54
2023-02-27T00:44:11.358Z,-1.53
2023-02-27T00:45:11.565Z,-1.53
2023-02-27T00:46:11.824Z,-1.52
2023-02-27T00:47:11.754Z,-1.52
2023-02-27T00:48:11.913Z,-1.51
2023-02-27T00:49:12.024Z,-1.51
2023-02-27T00:50:12.162Z,-1.51
2023-02-27T00:51:12.491Z,-1.51
2023-02-27T00:52:12.454Z,-1.51
2023-02-27T00:53:12.584Z,-1.52
2023-02-27T00:54:12.719Z,-1.52
2023-02-27T00:55:12.958Z,-1.53
2023-02-27T00:56:13.140Z,-1.54
2023-02-27T00:57:13.125Z,-1.55
2023-02-27T00:58:13.255Z,-1.56
2023-02-27T00:59:13.382Z,-1.57
2023-02-27T01:00:13.523Z,-1.58
2023-02-27T01:01:13.839Z,-1.59
2023-02-27T01:02:13.942Z,-1.60
2023-02-27T01:03:13.903Z,-1.60
2023-02-27T01:04:14.029Z,-1.61
2023-02-27T01:05:14.169Z,-1.62
2023-02-27T01:06:14.317Z,-1.62
2023-02-27T01:07:14.596Z,-1.63
2023-02-27T01:08:14.619Z,-1.64
2023-02-27T01:09:14.700Z,-1.64
2023-02-27T01:10:14.838Z,-1.65
2023-02-27T01:11:14.960Z,-1.65
2023-02-27T01:12:15.255Z,-1.66
2023-02-27T01:13:15.887Z,-1.66
2023-02-27T01:14:15.339Z,-1.66
2023-02-27T01:15:15.478Z,-1.67
2023-02-27T01:16:15.640Z,-1.67
2023-02-27T01:17:15.780Z,-1.67
2023-02-27T01:18:16.000Z,-1.68
2023-02-27T01:19:16.044Z,-1.68
2023-02-27T01:20:16.162Z,-1.68
2023-02-27T01:21:16.316Z,-1.68
2023-02-27T01:22:16.436Z,-1.67
2023-02-27T01:23:16.628Z,-1.67
2023-02-27T01:24:16.668Z,-1.66
2023-02-27T01:25:16.813Z,-1.66
2023-02-27T01:26:17.001Z,-1.65
2023-02-27T01:27:17.138Z,-1.65
2023-02-27T01:28:17.323Z,-1.64
2023-02-27T01:29:17.355Z,-1.64
2023-02-27T01:30:17.512Z,-1.64
2023-02-27T01:31:17.693Z,-1.64
2023-02-27T01:32:17.826Z,-1.64
2023-02-27T01:33:17.870Z,-1.63
2023-02-27T01:34:18.007Z,-1.64
2023-02-27T01:35:18.296Z,-1.64
2023-02-27T01:36:18.276Z,-1.63
2023-02-27T01:37:18.404Z,-1.63
2023-02-27T01:38:18.535Z,-1.63
2023-02-27T01:39:18.782Z,-1.63
2023-02-27T01:40:18.807Z,-1.63
2023-02-27T01:41:18.942Z,-1.64
2023-02-27T01:42:19.088Z,-1.65
2023-02-27T01:43:19.231Z,-1.66
2023-02-27T01:44:19.382Z,-1.66
2023-02-27T01:45:19.462Z,-1.67
2023-02-27T01:46:19.605Z,-1.68
2023-02-27T01:47:19.744Z,-1.70
2023-02-27T01:48:19.882Z,-1.70
2023-02-27T01:49:20.099Z,-1.71
2023-02-27T01:50:20.199Z,-1.71
2023-02-27T01:51:20.246Z,-1.72
2023-02-27T01:52:20.373Z,-1.72
2023-02-27T01:53:20.510Z,-1.73
2023-02-27T01:54:20.703Z,-1.74
2023-02-27T01:55:20.777Z,-1.74
2023-02-27T01:56:20.908Z,-1.75
2023-02-27T01:57:21.055Z,-1.76
2023-02-27T01:58:21.187Z,-1.76
2023-02-27T01:59:21.422Z,-1.77
2023-02-27T02:00:21.444Z,-1.77
2023-02-27T02:01:21.624Z,-1.77
2023-02-27T02:02:21.785Z,-1.77
2023-02-27T02:03:21.864Z,-1.77
2023-02-27T02:04:22.064Z,-1.78
2023-02-27T02:05:22.236Z,-1.78
2023-02-27T02:06:22.289Z,-1.79
2023-02-27T02:07:22.411Z,-1.80
2023-02-27T02:08:22.602Z,-1.80
2023-02-27T02:09:22.690Z,-1.80
2023-02-27T02:10:22.928Z,-1.81
2023-02-27T02:11:22.961Z,-1.81
2023-02-27T02:12:23.045Z,-1.82
2023-02-27T02:13:23.186Z,-1.83
2023-02-27T02:14:23.319Z,-1.84
2023-02-27T02:15:23.552Z,-1.84
2023-02-27T02:16:23.617Z,-1.84
2023-02-27T02:17:23.697Z,-1.85
2023-02-27T02:18:23.827Z,-1.85
2023-02-27T02:19:23.967Z,-1.85
2023-02-27T02:20:24.179Z,-1.85
2023-02-27T02:21:24.559Z,-1.85
2023-02-27T02:22:24.345Z,-1.84
2023-02-27T02:23:24.474Z,-1.84
2023-02-27T02:24:24.614Z,-1.84
2023-02-27T02:25:24.895Z,-1.84
2023-02-27T02:26:25.106Z,-1.85
2023-02-27T02:27:25.004Z,-1.85
2023-02-27T02:28:25.193Z,-1.85
2023-02-27T02:29:25.434Z,-1.85
2023-02-27T02:30:25.436Z,-1.85
2023-02-27T02:31:26.026Z,-1.85
2023-02-27T02:32:25.795Z,-1.85
2023-02-27T02:33:25.833Z,-1.86
2023-02-27T02:34:25.992Z,-1.86
2023-02-27T02:35:26.111Z,-1.86
2023-02-27T02:36:26.250Z,-1.86
2023-02-27T02:37:26.498Z,-1.86
2023-02-27T02:38:26.529Z,-1.86
2023-02-27T02:39:26.707Z,-1.87
2023-02-27T02:40:26.789Z,-1.87
2023-02-27T02:41:27.412Z,-1.88
2023-02-27T02:42:27.210Z,-1.89
2023-02-27T02:43:27.202Z,-1.90
2023-02-27T02:44:27.358Z,-1.91
2023-02-27T02:45:27.471Z,-1.92
2023-02-27T02:46:27.605Z,-1.93
2023-02-27T02:47:29.216Z,-1.94
2023-02-27T02:48:28.061Z,-1.95
2023-02-27T02:49:28.019Z,-1.97
2023-02-27T02:50:28.097Z,-1.98
2023-02-27T02:51:28.505Z,-1.99
2023-02-27T02:52:28.343Z,-2.00
2023-02-27T02:53:36.049Z,-2.01
2023-02-27T02:54:29.621Z,-2.03
2023-02-27T02:55:28.730Z,-2.05
2023-02-27T02:56:28.861Z,-2.06
2023-02-27T02:57:28.994Z,-2.07
2023-02-27T02:58:29.239Z,-2.09
2023-02-27T02:59:29.262Z,-2.09
2023-02-27T03:00:29.397Z,-2.10
2023-02-27T03:01:29.984Z,-2.10
2023-02-27T03:02:29.782Z,-2.11
2023-02-27T03:03:29.809Z,-2.12
2023-02-27T03:04:30.146Z,-2.12
2023-02-27T03:05:30.073Z,-2.13
2023-02-27T03:06:30.213Z,-2.14
2023-02-27T03:07:30.387Z,-2.14
2023-02-27T03:08:30.492Z,-2.16
2023-02-27T03:09:30.741Z,-2.17
2023-02-27T03:10:30.820Z,-2.18
2023-02-27T03:11:30.870Z,-2.19
2023-02-27T03:12:30.996Z,-2.20
2023-02-27T03:13:31.118Z,-2.21
2023-02-27T03:14:31.208Z,-2.22
2023-02-27T03:15:31.372Z,-2.23
2023-02-27T03:16:31.490Z,-2.25
2023-02-27T03:17:31.782Z,-2.26
2023-02-27T03:18:31.728Z,-2.27
2023-02-27T03:19:31.846Z,-2.29
2023-02-27T03:20:31.959Z,-2.30
2023-02-27T03:21:32.149Z,-2.31
2023-02-27T03:22:32.368Z,-2.32
2023-02-27T03:23:32.305Z,-2.33
2023-02-27T03:24:32.443Z,-2.34
2023-02-27T03:25:32.621Z,-2.34
2023-02-27T03:26:32.700Z,-2.35
2023-02-27T03:27:32.857Z,-2.35
2023-02-27T03:28:33.111Z,-2.36
2023-02-27T03:29:33.092Z,-2.37
2023-02-27T03:30:33.258Z,-2.38
2023-02-27T03:31:33.590Z,-2.39
2023-02-27T03:32:33.593Z,-2.39
2023-02-27T03:33:33.701Z,-2.40
2023-02-27T03:34:33.731Z,-2.40
2023-02-27T03:35:33.877Z,-2.41
2023-02-27T03:36:33.993Z,-2.42
2023-02-27T03:37:34.144Z,-2.43
2023-02-27T03:38:34.418Z,-2.43
2023-02-27T03:39:34.389Z,-2.44
2023-02-27T03:40:34.492Z,-2.44
2023-02-27T03:41:34.641Z,-2.44
2023-02-27T03:42:34.759Z,-2.43
2023-02-27T03:43:34.961Z,-2.43
2023-02-27T03:44:35.004Z,-2.43
2023-02-27T03:45:35.241Z,-2.43
2023-02-27T03:46:35.329Z,-2.43
2023-02-27T03:47:35.424Z,-2.42
2023-02-27T03:48:35.686Z,-2.43
2023-02-27T03:49:35.700Z,-2.43
2023-02-27T03:50:35.909Z,-2.43
2023-02-27T03:51:35.979Z,-2.44
2023-02-27T03:52:36.069Z,-2.45
2023-02-27T03:53:36.265Z,-2.46
2023-02-27T03:54:36.374Z,-2.46
2023-02-27T03:55:36.693Z,-2.47
2023-02-27T03:56:36.636Z,-2.47
2023-02-27T03:57:36.747Z,-2.48
2023-02-27T03:58:36.927Z,-2.49
2023-02-27T03:59:37.000Z,-2.50
2023-02-27T04:00:37.267Z,-2.50
2023-02-27T04:01:37.279Z,-2.51
2023-02-27T04:02:37.414Z,-2.51
2023-02-27T04:03:37.566Z,-2.52
2023-02-27T04:04:37.632Z,-2.53
2023-02-27T04:05:37.814Z,-2.53
2023-02-27T04:06:37.906Z,-2.54
2023-02-27T04:07:38.059Z,-2.55
2023-02-27T04:08:38.257Z,-2.55
2023-02-27T04:09:38.426Z,-2.56
2023-02-27T04:10:38.452Z,-2.56
2023-02-27T04:11:38.630Z,-2.57
2023-02-27T04:12:38.842Z,-2.58
2023-02-27T04:13:38.942Z,-2.58
2023-02-27T04:14:39.002Z,-2.59
2023-02-27T04:15:39.142Z,-2.59
2023-02-27T04:16:39.276Z,-2.60
2023-02-27T04:17:39.350Z,-2.60
2023-02-27T04:18:39.561Z,-2.61
2023-02-27T04:19:39.604Z,-2.62
2023-02-27T04:20:39.729Z,-2.62
2023-02-27T04:21:39.947Z,-2.63
2023-02-27T04:22:39.992Z,-2.63
2023-02-27T04:23:40.256Z,-2.63
2023-02-27T04:24:40.290Z,-2.64
2023-02-27T04:25:40.422Z,-2.65
2023-02-27T04:26:40.580Z,-2.65
2023-02-27T04:27:40.665Z,-2.66
2023-02-27T04:28:40.868Z,-2.66
2023-02-27T04:29:40.937Z,-2.67
2023-02-27T04:30:41.037Z,-2.67
2023-02-27T04:31:41.342Z,-2.67
2023-02-27T04:32:41.388Z,-2.67
2023-02-27T04:33:41.728Z,-2.68
2023-02-27T04:34:41.551Z,-2.68
2023-02-27T04:35:41.700Z,-2.69
2023-02-27T04:36:41.827Z,-2.70
2023-02-27T04:37:41.990Z,-2.70
2023-02-27T04:38:42.176Z,-2.71
2023-02-27T04:39:42.348Z,-2.71
2023-02-27T04:40:42.321Z,-2.72
2023-02-27T04:41:42.560Z,-2.73
2023-02-27T04:42:42.598Z,-2.73
2023-02-27T04:43:42.732Z,-2.74
2023-02-27T04:44:42.999Z,-2.75
2023-02-27T04:45:43.069Z,-2.75
2023-02-27T04:46:43.646Z,-2.76
2023-02-27T04:47:43.297Z,-2.77
2023-02-27T04:48:43.468Z,-2.78
2023-02-27T04:49:43.625Z,-2.78
2023-02-27T04:50:43.627Z,-2.79
2023-02-27T04:51:43.786Z,-2.79
2023-02-27T04:52:43.946Z,-2.80
2023-02-27T04:53:44.016Z,-2.80
2023-02-27T04:54:44.234Z,-2.80
2023-02-27T04:55:44.274Z,-2.81
2023-02-27T04:56:44.404Z,-2.81
2023-02-27T04:57:44.537Z,-2.81
2023-02-27T04:58:44.683Z,-2.82
2023-02-27T04:59:44.829Z,-2.82
2023-02-27T05:00:44.973Z,-2.83
2023-02-27T05:01:45.218Z,-2.83
2023-02-27T05:02:45.199Z,-2.84
2023-02-27T05:03:45.310Z,-2.84
2023-02-27T05:04:45.462Z,-2.85
2023-02-27T05:05:45.704Z,-2.86
2023-02-27T05:06:45.714Z,-2.86
2023-02-27T05:07:45.856Z,-2.86
2023-02-27T05:08:46.167Z,-2.87
2023-02-27T05:09:46.110Z,-2.87
2023-02-27T05:10:46.242Z,-2.87
2023-02-27T05:11:46.390Z,-2.87
2023-02-27T05:12:46.524Z,-2.87
2023-02-27T05:13:46.756Z,-2.87
2023-02-27T05:14:46.892Z,-2.88
2023-02-27T05:15:46.976Z,-2.88
2023-02-27T05:16:47.083Z,-2.89
2023-02-27T05:17:47.206Z,-2.89
2023-02-27T05:18:47.380Z,-2.89
2023-02-27T05:19:47.635Z,-2.90
2023-02-27T05:20:47.582Z,-2.90
2023-02-27T05:21:47.702Z,-2.90
2023-02-27T05:22:47.882Z,-2.91
2023-02-27T05:23:47.949Z,-2.91
2023-02-27T05:24:48.107Z,-2.91
2023-02-27T05:25:48.202Z,-2.92
2023-02-27T05:26:48.338Z,-2.92
2023-02-27T05:27:48.521Z,-2.91
2023-02-27T05:28:48.683Z,-2.91
2023-02-27T05:29:48.739Z,-2.91
2023-02-27T05:30:48.874Z,-2.92
2023-02-27T05:31:49.050Z,-2.92
2023-02-27T05:32:49.146Z,-2.93
2023-02-27T05:33:49.376Z,-2.93
2023-02-27T05:34:49.398Z,-2.94
2023-02-27T05:35:49.570Z,-2.94
2023-02-27T05:36:49.670Z,-2.95
2023-02-27T05:37:49.796Z,-2.95
2023-02-27T05:38:50.012Z,-2.96
2023-02-27T05:39:50.092Z,-2.97
2023-02-27T05:40:50.198Z,-2.97
2023-02-27T05:41:50.295Z,-2.98
2023-02-27T05:42:50.431Z,-2.98
2023-02-27T05:43:50.660Z,-2.99
2023-02-27T05:44:50.693Z,-2.99
2023-02-27T05:45:50.845Z,-2.99
2023-02-27T05:46:50.960Z,-2.99
2023-02-27T05:47:51.089Z,-2.99
2023-02-27T05:48:51.331Z,-2.99
2023-02-27T05:49:51.358Z,-3.00
2023-02-27T05:50:51.498Z,-3.00
2023-02-27T05:51:51.624Z,-3.00
2023-02-27T05:52:51.747Z,-3.00
2023-02-27T05:53:51.972Z,-3.00
2023-02-27T05:54:52.000Z,-3.01
2023-02-27T05:55:52.127Z,-3.01
2023-02-27T05:56:52.267Z,-3.01
2023-02-27T05:57:52.389Z,-3.02
2023-02-27T05:58:52.549Z,-3.02
2023-02-27T05:59:52.672Z,-3.03
2023-02-27T06:00:52.776Z,-3.03
2023-02-27T06:01:53.051Z,-3.04
2023-02-27T06:02:53.123Z,-3.04
2023-02-27T06:03:53.100Z,-3.04
2023-02-27T06:04:53.288Z,-3.05
2023-02-27T06:05:53.348Z,-3.06
2023-02-27T06:06:53.448Z,-3.07
2023-02-27T06:07:53.586Z,-3.08
2023-02-27T06:08:53.757Z,-3.09
2023-02-27T06:09:54.025Z,-3.10
2023-02-27T06:10:53.912Z,-3.11
2023-02-27T06:11:54.017Z,-3.11
2023-02-27T06:12:54.126Z,-3.12
2023-02-27T06:13:54.288Z,-3.13
2023-02-27T06:14:54.389Z,-3.14
2023-02-27T06:15:54.483Z,-3.14
2023-02-27T06:16:54.609Z,-3.15
2023-02-27T06:17:54.694Z,-3.16
2023-02-27T06:18:54.826Z,-3.17
2023-02-27T06:19:54.957Z,-3.17
2023-02-27T06:20:55.065Z,-3.17
2023-02-27T06:21:55.190Z,-3.17
2023-02-27T06:22:55.281Z,-3.17
2023-02-27T06:23:55.392Z,-3.16
2023-02-27T06:24:55.514Z,-3.16
2023-02-27T06:25:55.620Z,-3.16
2023-02-27T06:26:55.736Z,-3.17
2023-02-27T06:27:55.900Z,-3.17
2023-02-27T06:28:56.006Z,-3.17
2023-02-27T06:29:56.085Z,-3.16
2023-02-27T06:30:56.364Z,-3.16
2023-02-27T06:31:56.426Z,-3.15
2023-02-27T06:32:56.434Z,-3.15
2023-02-27T06:33:56.526Z,-3.14
2023-02-27T06:34:56.637Z,-3.14
2023-02-27T06:35:56.964Z,-3.13
2023-02-27T06:36:56.934Z,-3.13
2023-02-27T06:37:56.996Z,-3.13
2023-02-27T06:38:57.096Z,-3.12
2023-02-27T06:39:57.201Z,-3.12
2023-02-27T06:40:57.332Z,-3.11
2023-02-27T06:41:57.451Z,-3.11
2023-02-27T06:42:57.549Z,-3.10
2023-02-27T06:43:57.681Z,-3.10
2023-02-27T06:44:57.821Z,-3.11
2023-02-27T06:45:58.037Z,-3.12
2023-02-27T06:46:58.543Z,-3.12
2023-02-27T06:47:58.137Z,-3.13
2023-02-27T06:48:58.531Z,-3.14
2023-02-27T06:49:58.350Z,-3.15
2023-02-27T06:50:58.984Z,-3.16
2023-02-27T06:51:58.584Z,-3.16
2023-02-27T06:52:58.731Z,-3.17
2023-02-27T06:53:58.821Z,-3.17
2023-02-27T06:54:58.889Z,-3.17
2023-02-27T06:55:58.999Z,-3.16
2023-02-27T06:56:59.110Z,-3.16
2023-02-27T06:57:59.220Z,-3.16
2023-02-27T06:58:59.669Z,-3.15
2023-02-27T06:59:59.481Z,-3.15
2023-02-27T07:00:59.540Z,-3.15
2023-02-27T07:01:59.651Z,-3.14
2023-02-27T07:02:59.761Z,-3.14
2023-02-27T07:03:59.900Z,-3.13
2023-02-27T07:05:00.069Z,-3.12
2023-02-27T07:06:01.127Z,-3.12
2023-02-27T07:07:34.941Z,-3.11
2023-02-27T07:08:01.390Z,-3.10
2023-02-27T07:09:01.882Z,-3.08
2023-02-27T07:10:01.684Z,-3.04
2023-02-27T07:11:00.748Z,-2.99
2023-02-27T07:12:00.888Z,-2.92
2023-02-27T07:13:01.038Z,-2.83
2023-02-27T07:14:01.127Z,-2.72
2023-02-27T07:15:01.311Z,-2.61
2023-02-27T07:16:01.328Z,-2.49
2023-02-27T07:17:01.461Z,-2.36
2023-02-27T07:18:01.503Z,-2.22
2023-02-27T07:19:01.604Z,-2.09
2023-02-27T07:20:01.718Z,-1.97
2023-02-27T07:21:01.837Z,-1.84
2023-02-27T07:22:02.146Z,-1.72
2023-02-27T07:23:02.034Z,-1.59
2023-02-27T07:24:02.156Z,-1.46
2023-02-27T07:25:02.278Z,-1.35
2023-02-27T07:26:02.366Z,-1.24
2023-02-27T07:27:02.574Z,-1.13
2023-02-27T07:28:02.717Z,-1.02
2023-02-27T07:29:02.849Z,-0.92
2023-02-27T07:30:02.875Z,-0.83
2023-02-27T07:31:03.043Z,-0.75
2023-02-27T07:32:03.161Z,-0.68
2023-02-27T07:33:03.277Z,-0.62
2023-02-27T07:34:03.377Z,-0.58
2023-02-27T07:35:03.512Z,-0.55
2023-02-27T07:36:03.692Z,-0.53
2023-02-27T07:37:03.768Z,-0.50
2023-02-27T07:38:03.911Z,-0.48
2023-02-27T07:39:04.044Z,-0.48
2023-02-27T07:40:04.253Z,-0.49
2023-02-27T07:41:04.338Z,-0.51
2023-02-27T07:42:04.967Z,-0.54
2023-02-27T07:43:05.564Z,-0.61
2023-02-27T07:44:04.721Z,-0.68
2023-02-27T07:45:04.850Z,-0.75
2023-02-27T07:46:05.043Z,-0.81
2023-02-27T07:47:05.258Z,-0.86
2023-02-27T07:48:05.242Z,-0.89
2023-02-27T07:49:05.429Z,-0.92
2023-02-27T07:50:05.642Z,-0.94
2023-02-27T07:51:05.642Z,-0.95
2023-02-27T07:52:05.768Z,-0.97
2023-02-27T07:53:05.900Z,-1.00
2023-02-27T07:54:06.045Z,-1.03
2023-02-27T07:55:06.241Z,-1.05
2023-02-27T07:56:06.274Z,-1.06
2023-02-27T07:57:06.428Z,-1.06
2023-02-27T07:58:06.577Z,-1.05
2023-02-27T07:59:06.662Z,-1.05
2023-02-27T08:00:06.810Z,-1.04
2023-02-27T08:01:06.952Z,-1.02
2023-02-27T08:02:07.066Z,-0.98
2023-02-27T08:03:07.212Z,-0.93
2023-02-27T08:04:07.347Z,-0.85
2023-02-27T08:05:07.486Z,-0.75
2023-02-27T08:06:07.636Z,-0.63
2023-02-27T08:07:07.835Z,-0.50
2023-02-27T08:08:07.902Z,-0.38
2023-02-27T08:09:08.026Z,-0.26
2023-02-27T08:10:08.162Z,-0.15
2023-02-27T08:11:08.284Z,-0.03
2023-02-27T08:12:08.402Z,0.09
2023-02-27T08:13:08.510Z,0.21
2023-02-27T08:14:08.675Z,0.31
2023-02-27T08:15:08.726Z,0.41
2023-02-27T08:16:08.990Z,0.50
2023-02-27T08:17:08.986Z,0.56
2023-02-27T08:18:09.043Z,0.63
2023-02-27T08:19:09.173Z,0.67
2023-02-27T08:20:09.296Z,0.70
2023-02-27T08:21:09.381Z,0.73
2023-02-27T08:22:09.523Z,0.75
2023-02-27T08:23:09.621Z,0.73
2023-02-27T08:24:09.833Z,0.70
2023-02-27T08:25:09.830Z,0.69
2023-02-27T08:26:09.938Z,0.70
2023-02-27T08:27:10.092Z,0.72
2023-02-27T08:28:10.149Z,0.72
2023-02-27T08:29:10.845Z,0.72
2023-02-27T08:30:10.373Z,0.75
2023-02-27T08:31:10.495Z,0.78
2023-02-27T08:32:10.604Z,0.79
2023-02-27T08:33:10.699Z,0.80
2023-02-27T08:34:11.112Z,0.84
2023-02-27T08:35:12.106Z,0.87
2023-02-27T08:36:11.295Z,0.91
2023-02-27T08:37:11.140Z,0.96
2023-02-27T08:38:11.257Z,1.00
2023-02-27T08:39:11.347Z,1.06
2023-02-27T08:40:11.501Z,1.10
2023-02-27T08:41:12.301Z,1.15
2023-02-27T08:42:11.740Z,1.19
2023-02-27T08:43:11.840Z,1.23
2023-02-27T08:44:11.963Z,1.30
2023-02-27T08:45:12.065Z,1.40
2023-02-27T08:46:12.251Z,1.49
2023-02-27T08:47:12.481Z,1.58
2023-02-27T08:48:12.389Z,1.67
2023-02-27T08:49:14.147Z,1.74
2023-02-27T08:50:12.614Z,1.80
2023-02-27T08:51:12.708Z,1.85
2023-02-27T08:52:13.085Z,1.87
2023-02-27T08:53:12.934Z,1.90
2023-02-27T08:54:13.065Z,1.95
2023-02-27T08:55:13.175Z,2.03
2023-02-27T08:56:13.586Z,2.08
2023-02-27T08:57:13.406Z,2.11
2023-02-27T08:58:13.504Z,2.12
2023-02-27T08:59:13.762Z,2.12
2023-02-27T09:00:13.731Z,2.14
2023-02-27T09:01:13.842Z,2.20
2023-02-27T09:02:13.941Z,2.24
2023-02-27T09:03:14.084Z,2.26
2023-02-27T09:04:14.199Z,2.25
2023-02-27T09:05:14.297Z,2.25
2023-02-27T09:06:14.405Z,2.23
2023-02-27T09:07:14.530Z,2.21
2023-02-27T09:08:14.638Z,2.20
2023-02-27T09:09:14.911Z,2.19
2023-02-27T09:10:14.847Z,2.19
2023-02-27T09:11:14.966Z,2.21
2023-02-27T09:12:15.073Z,2.24
2023-02-27T09:13:15.174Z,2.26
2023-02-27T09:14:15.313Z,2.29
2023-02-27T09:15:15.424Z,2.29
2023-02-27T09:16:15.568Z,2.26
2023-02-27T09:17:15.665Z,2.25
2023-02-27T09:18:15.764Z,2.26
2023-02-27T09:19:15.939Z,2.25
2023-02-27T09:20:15.969Z,2.22
2023-02-27T09:21:16.073Z,2.22
2023-02-27T09:22:16.197Z,2.26
2023-02-27T09:23:16.331Z,2.30
2023-02-27T09:24:20.432Z,2.35
2023-02-27T09:25:16.540Z,2.43
2023-02-27T09:26:16.711Z,2.52
2023-02-27T09:27:16.761Z,2.60
2023-02-27T09:28:16.876Z,2.64
2023-02-27T09:29:16.970Z,2.63
2023-02-27T09:30:17.130Z,2.59
2023-02-27T09:31:17.325Z,2.53
2023-02-27T09:32:17.489Z,2.52
2023-02-27T09:33:17.412Z,2.57
2023-02-27T09:34:17.519Z,2.61
2023-02-27T09:35:17.690Z,2.61
2023-02-27T09:36:17.732Z,2.64
2023-02-27T09:37:17.868Z,2.68
2023-02-27T09:38:17.973Z,2.73
2023-02-27T09:39:18.059Z,2.74
2023-02-27T09:40:18.238Z,2.71
2023-02-27T09:41:18.473Z,2.70
2023-02-27T09:42:18.436Z,2.71
2023-02-27T09:43:18.603Z,2.73
2023-02-27T09:44:18.838Z,2.75
2023-02-27T09:45:18.821Z,2.76
2023-02-27T09:46:19.010Z,2.76
2023-02-27T09:47:19.087Z,2.75
2023-02-27T09:48:19.215Z,2.72
2023-02-27T09:49:19.425Z,2.71
2023-02-27T09:50:19.458Z,2.69
2023-02-27T09:51:19.671Z,2.67
2023-02-27T09:52:19.824Z,2.65
2023-02-27T09:53:19.858Z,2.68
2023-02-27T09:54:19.991Z,2.70
2023-02-27T09:55:20.125Z,2.68
2023-02-27T09:56:20.261Z,2.69
2023-02-27T09:57:20.428Z,2.73
2023-02-27T09:58:20.504Z,2.77
2023-02-27T09:59:20.634Z,2.79
2023-02-27T10:00:20.806Z,2.80
2023-02-27T10:01:20.917Z,2.82
2023-02-27T10:02:21.113Z,2.85
2023-02-27T10:03:21.209Z,2.92
2023-02-27T10:04:21.314Z,2.98
2023-02-27T10:05:21.434Z,3.05
2023-02-27T10:06:21.577Z,3.10
2023-02-27T10:07:21.724Z,3.11
2023-02-27T10:08:21.913Z,3.06
2023-02-27T10:09:22.006Z,2.99
2023-02-27T10:10:22.102Z,2.96
2023-02-27T10:11:22.284Z,2.92
2023-02-27T10:12:22.527Z,2.90
2023-02-27T10:13:22.493Z,2.94
2023-02-27T10:14:22.638Z,3.03
2023-02-27T10:15:22.842Z,3.09
2023-02-27T10:16:23.007Z,3.09
2023-02-27T10:17:23.020Z,3.09
2023-02-27T10:18:28.283Z,3.14
2023-02-27T10:19:24.383Z,3.23
2023-02-27T10:20:23.393Z,3.29
2023-02-27T10:21:23.525Z,3.31
2023-02-27T10:22:23.678Z,3.29
2023-02-27T10:23:23.804Z,3.29
2023-02-27T10:24:23.987Z,3.31
2023-02-27T10:25:31.641Z,3.34
2023-02-27T10:26:25.216Z,3.38
2023-02-27T10:27:24.352Z,3.43
2023-02-27T10:28:24.542Z,3.46
2023-02-27T10:29:24.587Z,3.42
2023-02-27T10:30:29.800Z,3.35
2023-02-27T10:31:26.347Z,3.32
2023-02-27T10:32:24.961Z,3.32
2023-02-27T10:33:27.371Z,3.35
2023-02-27T10:34:25.363Z,3.43
2023-02-27T10:35:25.416Z,3.56
2023-02-27T10:36:33.568Z,3.68
2023-02-27T10:37:26.662Z,3.76
2023-02-27T10:38:25.795Z,3.82
2023-02-27T10:39:25.942Z,3.89
2023-02-27T10:40:26.173Z,3.96
2023-02-27T10:41:26.752Z,4.00
2023-02-27T10:42:26.432Z,4.04
2023-02-27T10:43:26.429Z,4.08
2023-02-27T10:44:26.561Z,4.10
2023-02-27T10:45:26.758Z,4.07
2023-02-27T10:46:27.332Z,4.04
2023-02-27T10:47:26.966Z,3.98
2023-02-27T10:48:27.097Z,3.92
2023-02-27T10:49:27.332Z,3.91
2023-02-27T10:50:27.366Z,3.94
2023-02-27T10:51:27.943Z,3.99
2023-02-27T10:52:27.622Z,4.02
2023-02-27T10:53:27.762Z,4.00
2023-02-27T10:54:28.195Z,3.98
2023-02-27T10:55:28.040Z,3.99
2023-02-27T10:56:28.446Z,4.02
2023-02-27T10:57:28.305Z,4.12
2023-02-27T10:58:28.599Z,4.19
2023-02-27T10:59:28.680Z,4.19
2023-02-27T11:00:28.710Z,4.17
2023-02-27T11:01:29.180Z,4.09
2023-02-27T11:02:28.951Z,4.04
2023-02-27T11:03:29.103Z,4.05
2023-02-27T11:04:29.564Z,4.08
2023-02-27T11:05:29.357Z,4.12
2023-02-27T11:06:29.505Z,4.18
2023-02-27T11:07:29.636Z,4.26
2023-02-27T11:08:29.888Z,4.35
2023-02-27T11:09:29.922Z,4.39
2023-02-27T11:10:30.040Z,4.38
2023-02-27T11:11:30.235Z,4.37
2023-02-27T11:12:31.256Z,4.35
2023-02-27T11:13:30.378Z,4.37
2023-02-27T11:14:30.507Z,4.45
2023-02-27T11:15:30.812Z,4.55
2023-02-27T11:16:30.753Z,4.63
2023-02-27T11:17:30.898Z,4.66
2023-02-27T11:18:31.074Z,4.66
2023-02-27T11:19:31.183Z,4.59
2023-02-27T11:20:31.325Z,4.47
2023-02-27T11:21:31.665Z,4.37
2023-02-27T11:22:31.575Z,4.32
2023-02-27T11:23:31.705Z,4.30
2023-02-27T11:24:31.830Z,4.33
2023-02-27T11:25:32.075Z,4.38
2023-02-27T11:26:32.090Z,4.44
2023-02-27T11:27:32.239Z,4.48
2023-02-27T11:28:32.362Z,4.53
2023-02-27T11:29:32.514Z,4.58
2023-02-27T11:30:32.744Z,4.57
2023-02-27T11:31:32.932Z,4.58
2023-02-27T11:32:32.905Z,4.56
2023-02-27T11:33:33.087Z,4.52
2023-02-27T11:34:33.201Z,4.53
2023-02-27T11:35:34.155Z,4.58
2023-02-27T11:36:33.614Z,4.69
2023-02-27T11:37:33.597Z,4.77
2023-02-27T11:38:33.714Z,4.80
2023-02-27T11:39:33.851Z,4.77
2023-02-27T11:40:34.334Z,4.69
2023-02-27T11:41:34.132Z,4.68
2023-02-27T11:42:34.212Z,4.78
2023-02-27T11:43:34.373Z,4.90
2023-02-27T11:44:50.186Z,4.97
2023-02-27T11:46:05.291Z,5.04
2023-02-27T11:46:47.611Z,5.11
2023-02-27T11:47:36.075Z,5.15
2023-02-27T11:48:34.932Z,5.12
2023-02-27T11:49:35.313Z,5.02
2023-02-27T11:50:35.270Z,4.92
2023-02-27T11:51:35.330Z,4.86
2023-02-27T11:52:35.421Z,4.84
2023-02-27T11:53:35.549Z,4.80
2023-02-27T11:54:35.724Z,4.77
2023-02-27T11:55:35.829Z,4.78
2023-02-27T11:56:36.381Z,4.82
2023-02-27T11:57:36.088Z,4.87
2023-02-27T11:58:36.210Z,4.91
2023-02-27T11:59:36.340Z,4.94
2023-02-27T12:00:36.492Z,4.95
2023-02-27T12:01:36.609Z,4.98
2023-02-27T12:02:39.170Z,4.96
2023-02-27T12:03:36.917Z,4.96
2023-02-27T12:04:36.995Z,5.03
2023-02-27T12:05:37.149Z,5.03
2023-02-27T12:06:37.240Z,5.03
2023-02-27T12:07:37.357Z,5.07
2023-02-27T12:08:37.521Z,5.08
2023-02-27T12:09:37.627Z,5.01
2023-02-27T12:10:37.827Z,4.99
2023-02-27T12:11:38.031Z,5.08
2023-02-27T12:12:38.027Z,5.14
2023-02-27T12:13:38.156Z,5.16
2023-02-27T12:14:38.412Z,5.10
2023-02-27T12:15:38.414Z,5.04
2023-02-27T12:16:38.608Z,5.04
2023-02-27T12:17:38.654Z,5.07
2023-02-27T12:18:38.840Z,5.13
2023-02-27T12:19:39.108Z,5.22
2023-02-27T12:20:39.003Z,5.35
2023-02-27T12:21:39.231Z,5.45
2023-02-27T12:22:39.253Z,5.54
2023-02-27T12:23:39.407Z,5.56
2023-02-27T12:24:39.532Z,5.56
2023-02-27T12:25:39.670Z,5.62
2023-02-27T12:26:39.822Z,5.69
2023-02-27T12:27:40.564Z,5.73
2023-02-27T12:28:40.069Z,5.74
2023-02-27T12:29:40.212Z,5.77
2023-02-27T12:30:40.332Z,5.81
2023-02-27T12:31:40.560Z,5.82
2023-02-27T12:32:40.602Z,5.87
2023-02-27T12:33:40.742Z,5.93
2023-02-27T12:34:40.860Z,5.93
2023-02-27T12:35:41.102Z,5.96
2023-02-27T12:36:41.105Z,5.99
2023-02-27T12:37:41.225Z,6.02
2023-02-27T12:38:41.364Z,5.97
2023-02-27T12:39:41.492Z,5.87
2023-02-27T12:40:41.913Z,5.82
2023-02-27T12:41:41.748Z,5.86
2023-02-27T12:42:41.874Z,5.93
2023-02-27T12:43:42.023Z,6.01
2023-02-27T12:44:42.166Z,6.11
2023-02-27T12:45:42.356Z,6.09
2023-02-27T12:46:42.435Z,5.98
2023-02-27T12:47:42.661Z,5.84
2023-02-27T12:48:42.698Z,5.64
2023-02-27T12:49:42.822Z,5.52
2023-02-27T12:50:42.985Z,5.55
2023-02-27T12:51:43.216Z,5.71
2023-02-27T12:52:43.316Z,5.89
2023-02-27T12:53:43.348Z,6.02
2023-02-27T12:54:45.740Z,6.13
2023-02-27T12:55:43.597Z,6.23
2023-02-27T12:56:43.726Z,6.33
2023-02-27T12:57:43.908Z,6.40
2023-02-27T12:58:44.018Z,6.40
2023-02-27T12:59:44.118Z,6.33
2023-02-27T13:00:44.320Z,6.24
2023-02-27T13:01:44.387Z,6.08
2023-02-27T13:02:44.569Z,5.96
2023-02-27T13:03:44.722Z,5.96